Time;durP1;ratioP1;P1;durP2;ratioP2;P2;SDS_P1;SDS_P2;PMS_P1;PMS_P2;Temp;Humidity;BMP_temperature;BMP_pressure;BME280_temperature;BME280_humidity;BME280_pressure;Samples;Min_cycle;Max_cycle;Signal;HPM_P1;HPM_P2
2021/08/12 00:00:57;;;;;;;14.00;8.07;;;;;;;16.87;74.70;101993.00;4959774;29;20031;-85
2021/08/12 00:03:23;;;;;;;11.38;8.90;;;;;;;16.84;74.98;101997.66;4958672;29;20044;-85
2021/08/12 00:05:49;;;;;;;11.80;9.02;;;;;;;16.78;75.04;101989.09;4959895;29;20098;-84
2021/08/12 00:08:15;;;;;;;15.35;9.23;;;;;;;16.75;75.13;101981.25;4942843;29;20042;-85
2021/08/12 00:10:42;;;;;;;15.32;10.05;;;;;;;16.75;74.83;101991.94;4959451;29;20387;-84
2021/08/12 00:13:08;;;;;;;12.52;9.07;;;;;;;16.77;74.88;101983.84;4942524;29;20367;-83
2021/08/12 00:15:35;;;;;;;13.18;8.90;;;;;;;16.76;74.46;101982.97;4959504;29;20031;-85
2021/08/12 00:18:08;;;;;;;13.20;8.57;;;;;;;16.72;74.62;101981.44;4959581;29;20477;-85
2021/08/12 00:20:37;;;;;;;14.00;9.13;;;;;;;16.71;74.76;101986.88;4943431;29;20561;-84
2021/08/12 00:23:04;;;;;;;13.38;9.13;;;;;;;16.69;74.94;101984.31;4959315;28;20063;-84
2021/08/12 00:25:30;;;;;;;14.00;9.25;;;;;;;16.66;74.95;101977.31;4946195;29;20102;-85
2021/08/12 00:27:56;;;;;;;15.35;8.98;;;;;;;16.63;74.72;101966.81;4963797;29;20126;-85
2021/08/12 00:30:21;;;;;;;12.68;8.40;;;;;;;16.62;74.91;101977.59;4946129;29;20028;-85
2021/08/12 00:32:47;;;;;;;12.40;8.10;;;;;;;16.60;74.92;101977.69;4945632;29;20051;-85
2021/08/12 00:35:14;;;;;;;12.73;8.88;;;;;;;16.56;75.66;101977.03;4960727;23;20047;-85
2021/08/12 00:37:41;;;;;;;11.98;8.60;;;;;;;16.54;75.29;101980.75;4910952;29;20046;-84
2021/08/12 00:40:10;;;;;;;10.93;8.38;;;;;;;16.55;75.00;101979.81;4895613;29;20039;-84
2021/08/12 00:42:37;;;;;;;11.88;7.93;;;;;;;16.51;74.99;101973.78;4926999;29;20119;-84
2021/08/12 00:45:04;;;;;;;10.98;8.07;;;;;;;16.53;75.18;101971.88;4927209;29;20062;-84
2021/08/12 00:47:30;;;;;;;13.40;7.55;;;;;;;16.54;74.89;101970.94;4943276;29;20044;-84
2021/08/12 00:49:55;;;;;;;10.20;7.88;;;;;;;16.52;74.89;101980.84;4943195;29;20040;-84
2021/08/12 00:52:22;;;;;;;12.18;7.78;;;;;;;16.55;75.33;101975.31;4926756;29;20032;-83
2021/08/12 00:54:51;;;;;;;14.43;8.98;;;;;;;16.59;75.21;101972.44;4926399;29;20039;-83
2021/08/12 00:57:19;;;;;;;11.10;8.82;;;;;;;16.59;75.12;101967.09;4910764;29;20031;-83
2021/08/12 00:59:46;;;;;;;13.95;9.13;;;;;;;16.56;75.32;101955.69;4926666;29;20122;-83
2021/08/12 01:02:14;;;;;;;10.15;7.85;;;;;;;16.56;75.40;101966.38;4943203;29;20039;-83
2021/08/12 01:04:44;;;;;;;13.45;9.20;;;;;;;16.58;75.71;101960.94;4910512;29;20031;-84
2021/08/12 01:07:26;;;;;;;14.32;8.70;;;;;;;16.61;75.69;101966.09;4926708;29;20051;-84
2021/08/12 01:10:22;;;;;;;16.98;8.90;;;;;;;16.65;75.24;101964.06;4945404;29;20035;-84
2021/08/12 01:13:28;;;;;;;11.88;8.25;;;;;;;16.73;75.26;101964.47;4882757;29;20041;-84
2021/08/12 01:15:56;;;;;;;15.45;8.77;;;;;;;16.75;75.15;101972.38;4875326;29;20523;-84
2021/08/12 01:18:37;;;;;;;14.27;8.75;;;;;;;16.75;75.05;101967.91;4869655;29;20041;-84
2021/08/12 01:21:29;;;;;;;12.18;7.82;;;;;;;16.74;75.01;101965.31;4868995;29;20404;-84
2021/08/12 01:23:58;;;;;;;12.77;7.72;;;;;;;16.76;75.03;101974.09;4871978;29;20106;-84
2021/08/12 01:26:23;;;;;;;15.45;8.38;;;;;;;16.79;74.78;101971.22;4870095;29;20029;-83
2021/08/12 01:28:50;;;;;;;12.38;8.63;;;;;;;16.78;74.89;101970.38;4869840;29;20068;-84
2021/08/12 01:31:39;;;;;;;15.05;8.98;;;;;;;16.81;74.62;101969.31;4869220;29;20049;-83
2021/08/12 01:34:21;;;;;;;12.95;7.80;;;;;;;16.86;74.24;101966.38;4870642;29;20045;-82
2021/08/12 01:36:46;;;;;;;14.85;8.68;;;;;;;16.86;74.60;101966.38;4871842;29;20428;-85
2021/08/12 01:39:13;;;;;;;12.15;8.15;;;;;;;16.85;74.40;101956.66;4870627;29;20096;-83
2021/08/12 01:41:41;;;;;;;14.32;8.23;;;;;;;16.86;74.09;101959.22;4886283;29;20029;-83
2021/08/12 01:44:06;;;;;;;13.75;9.27;;;;;;;16.80;74.31;101952.44;4870307;29;20049;-84
2021/08/12 01:46:35;;;;;;;11.10;7.95;;;;;;;16.79;74.43;101952.53;4854670;29;20045;-83
2021/08/12 01:49:02;;;;;;;14.55;9.05;;;;;;;16.79;74.36;101947.19;4883795;29;20075;-85
2021/08/12 01:51:31;;;;;;;17.27;10.70;;;;;;;16.79;74.22;101944.50;4944241;29;20103;-84
2021/08/12 01:53:59;;;;;;;16.27;9.75;;;;;;;16.78;74.30;101949.03;4911931;29;20020;-84
2021/08/12 01:56:25;;;;;;;16.75;10.63;;;;;;;16.77;74.05;101946.44;4928031;29;20038;-85
2021/08/12 01:58:55;;;;;;;13.57;9.88;;;;;;;16.76;74.26;101950.03;4910887;29;20062;-84
2021/08/12 02:01:22;;;;;;;16.40;10.45;;;;;;;16.70;74.07;101940.63;4926615;29;20020;-85
2021/08/12 02:03:49;;;;;;;12.27;10.07;;;;;;;16.68;74.57;101945.19;4910029;29;20038;-84
2021/08/12 02:06:14;;;;;;;12.63;8.57;;;;;;;16.63;74.59;101948.13;4942839;29;20047;-84
2021/08/12 02:08:41;;;;;;;12.23;9.60;;;;;;;16.55;74.82;101953.09;4909886;29;20414;-85
2021/08/12 02:11:07;;;;;;;11.73;8.82;;;;;;;16.46;75.14;101957.19;4941766;29;20146;-84
2021/08/12 02:13:32;;;;;;;12.40;9.18;;;;;;;16.38;75.44;101949.63;4924828;29;20039;-84
2021/08/12 02:16:01;;;;;;;11.82;9.25;;;;;;;16.33;75.61;101957.06;4925446;29;20066;-85
2021/08/12 02:18:28;;;;;;;11.10;8.15;;;;;;;16.26;75.77;101953.91;4942609;29;20028;-84
2021/08/12 02:21:07;;;;;;;10.95;9.05;;;;;;;16.19;76.10;101949.91;4925406;29;20054;-85
2021/08/12 02:23:34;;;;;;;14.57;9.57;;;;;;;16.20;76.11;101951.59;4895148;29;20118;-84
2021/08/12 02:26:03;;;;;;;14.95;10.27;;;;;;;16.18;76.52;101946.34;4925794;29;20079;-85
2021/08/12 02:28:30;;;;;;;14.13;10.02;;;;;;;16.20;76.57;101943.59;4910299;29;20020;-84
2021/08/12 02:30:55;;;;;;;10.88;8.95;;;;;;;16.21;76.98;101934.63;4909928;29;20034;-84
2021/08/12 02:33:24;;;;;;;12.10;8.63;;;;;;;16.23;76.92;101932.72;4924816;29;20036;-84
2021/08/12 02:35:51;;;;;;;11.43;8.68;;;;;;;16.23;76.73;101929.19;4941698;29;20043;-84
2021/08/12 02:38:18;;;;;;;13.20;9.10;;;;;;;16.24;77.02;101937.13;4908945;29;20071;-85
2021/08/12 02:40:43;;;;;;;11.95;8.73;;;;;;;16.27;76.72;101936.94;4925270;29;20019;-84
2021/08/12 02:43:09;;;;;;;14.00;9.70;;;;;;;16.27;76.90;101941.44;4925036;29;20063;-85
2021/08/12 02:45:34;;;;;;;14.50;9.13;;;;;;;16.28;76.95;101944.00;4941575;29;20107;-84
2021/08/12 02:48:00;;;;;;;11.63;7.95;;;;;;;16.30;76.66;101944.75;4925960;29;20031;-84
2021/08/12 02:50:27;;;;;;;12.73;8.45;;;;;;;16.27;76.90;101936.94;4926648;29;20062;-83
2021/08/12 02:52:54;;;;;;;16.17;10.07;;;;;;;16.25;77.25;101936.19;4911891;29;20032;-84
2021/08/12 02:55:21;;;;;;;15.32;10.00;;;;;;;16.26;77.13;101929.00;4927573;29;20031;-84
2021/08/12 02:57:47;;;;;;;13.13;9.73;;;;;;;16.25;77.10;101936.19;4934472;29;20028;-83
2021/08/12 03:00:14;;;;;;;12.07;8.25;;;;;;;16.23;77.10;101924.72;4916336;29;20036;-84
2021/08/12 03:02:46;;;;;;;11.38;8.73;;;;;;;16.19;77.24;101924.03;4913070;29;20167;-84
2021/08/12 03:05:14;;;;;;;11.18;9.68;;;;;;;16.20;77.12;101932.91;4912080;29;20035;-83
2021/08/12 03:07:42;;;;;;;19.38;11.70;;;;;;;16.22;77.87;101928.34;4925740;29;20716;-84
2021/08/12 03:10:09;;;;;;;24.20;15.93;;;;;;;16.22;78.96;101933.69;4927962;29;20042;-82
2021/08/12 03:12:36;;;;;;;25.83;16.63;;;;;;;16.35;79.23;101938.31;4926787;29;20063;-84
2021/08/12 03:15:01;;;;;;;26.40;17.05;;;;;;;16.46;78.61;101941.16;4913485;29;20391;-84
2021/08/12 03:17:28;;;;;;;24.08;15.48;;;;;;;16.51;78.58;101940.88;4909662;29;20052;-84
2021/08/12 03:19:54;;;;;;;26.95;18.23;;;;;;;16.53;78.44;101939.84;4907251;29;20028;-84
2021/08/12 03:22:24;;;;;;;30.52;19.40;;;;;;;16.58;78.28;101944.91;4940925;29;20043;-84
2021/08/12 03:24:51;;;;;;;28.83;16.88;;;;;;;16.60;78.01;101939.47;4926200;29;20491;-83
2021/08/12 03:27:16;;;;;;;26.63;17.58;;;;;;;16.62;77.53;101942.88;4908392;29;20100;-83
2021/08/12 03:29:43;;;;;;;27.08;16.70;;;;;;;16.65;77.16;101945.38;4940854;29;20028;-83
2021/08/12 03:32:10;;;;;;;28.58;17.98;;;;;;;16.63;77.33;101942.78;4941292;29;20032;-83
2021/08/12 03:34:36;;;;;;;32.35;18.75;;;;;;;16.68;77.18;101927.34;4940757;29;20112;-84
2021/08/12 03:37:04;;;;;;;26.08;17.67;;;;;;;16.63;77.14;101924.09;4940839;29;20085;-84
2021/08/12 03:39:31;;;;;;;29.02;19.27;;;;;;;16.59;77.32;101930.59;4924078;29;20024;-84
2021/08/12 03:41:58;;;;;;;30.05;18.83;;;;;;;16.53;77.72;101933.63;4939866;29;20052;-84
2021/08/12 03:44:24;;;;;;;33.60;19.27;;;;;;;16.45;77.88;101926.09;4922899;29;20032;-84
2021/08/12 03:46:49;;;;;;;32.80;19.98;;;;;;;16.55;77.57;101929.06;4940549;29;20119;-84
2021/08/12 03:49:15;;;;;;;34.45;21.15;;;;;;;16.48;77.78;101925.03;4940801;29;20043;-84
2021/08/12 03:51:42;;;;;;;30.48;21.20;;;;;;;16.46;78.18;101925.13;4940630;29;20110;-84
2021/08/12 03:54:09;;;;;;;34.13;20.27;;;;;;;16.53;77.90;101928.31;4924187;29;20039;-84
2021/08/12 03:56:35;;;;;;;35.40;21.95;;;;;;;16.46;77.98;101916.28;4940753;29;20032;-84
2021/08/12 03:59:03;;;;;;;34.67;22.15;;;;;;;16.38;78.28;101919.44;4940565;29;20056;-84
2021/08/12 04:01:30;;;;;;;29.55;20.80;;;;;;;16.34;78.28;101921.41;4923662;29;20392;-84
2021/08/12 04:03:55;;;;;;;35.75;21.65;;;;;;;16.38;78.46;101914.09;4940565;29;20035;-83
2021/08/12 04:06:20;;;;;;;38.33;21.77;;;;;;;16.43;78.51;101917.31;4939878;29;20043;-84
2021/08/12 04:08:46;;;;;;;33.50;20.00;;;;;;;16.40;78.01;101915.69;4940670;29;20027;-84
2021/08/12 04:11:11;;;;;;;36.13;21.70;;;;;;;16.34;78.03;101915.22;4940275;29;20091;-83
2021/08/12 04:13:38;;;;;;;37.10;22.05;;;;;;;16.29;78.41;101907.47;4940071;29;20099;-83
2021/08/12 04:16:08;;;;;;;37.40;22.73;;;;;;;16.21;78.62;101899.94;4940957;29;20039;-84
2021/08/12 04:18:35;;;;;;;33.83;21.90;;;;;;;16.16;78.85;101910.06;4941100;29;20390;-83
2021/08/12 04:21:09;;;;;;;37.05;22.92;;;;;;;16.12;78.98;101913.84;4923594;29;20107;-83
2021/08/12 04:23:36;;;;;;;41.97;24.80;;;;;;;16.09;79.25;101916.69;4939982;29;20047;-84
2021/08/12 04:26:05;;;;;;;45.83;26.30;;;;;;;16.07;79.66;101900.75;4923306;29;20463;-84
2021/08/12 04:28:32;;;;;;;44.05;26.05;;;;;;;16.05;79.71;101903.53;4937937;29;20111;-83
2021/08/12 04:30:57;;;;;;;52.45;29.67;;;;;;;16.02;80.25;101919.72;4923550;29;20097;-83
2021/08/12 04:33:24;;;;;;;52.67;29.73;;;;;;;16.03;79.96;101921.47;4940216;29;20467;-84
2021/08/12 04:35:55;;;;;;;56.83;30.60;;;;;;;16.04;80.37;101914.28;4918802;23;20044;-83
2021/08/12 04:38:25;;;;;;;63.42;33.58;;;;;;;16.02;80.16;101918.88;4904511;29;20072;-83
2021/08/12 04:40:53;;;;;;;65.47;33.60;;;;;;;16.04;80.38;101923.16;4922584;29;20036;-83
2021/08/12 04:43:19;;;;;;;64.00;35.25;;;;;;;16.04;80.60;101925.81;4932711;29;20047;-83
2021/08/12 04:45:48;;;;;;;66.85;35.53;;;;;;;16.09;80.71;101930.03;4924116;29;20032;-83
2021/08/12 04:48:15;;;;;;;62.30;34.70;;;;;;;16.12;80.60;101933.38;4920616;29;20040;-84
2021/08/12 04:50:43;;;;;;;62.70;36.17;;;;;;;16.15;80.56;101940.34;4904865;29;20024;-84
2021/08/12 04:53:09;;;;;;;70.50;36.53;;;;;;;16.17;80.37;101935.78;4904696;29;20032;-84
2021/08/12 04:55:36;;;;;;;63.15;33.55;;;;;;;16.22;80.18;101935.50;4921849;29;20046;-83
2021/08/12 04:58:04;;;;;;;70.32;38.03;;;;;;;16.24;80.15;101942.44;4922277;29;20055;-83
2021/08/12 05:00:29;;;;;;;72.25;39.85;;;;;;;16.25;80.20;101930.84;4921517;29;20028;-83
2021/08/12 05:02:58;;;;;;;66.78;38.42;;;;;;;16.31;80.03;101935.81;4904674;29;20036;-86
2021/08/12 05:05:25;;;;;;;65.90;36.97;;;;;;;16.37;79.82;101936.38;4921372;29;20032;-84
2021/08/12 05:07:55;;;;;;;70.10;38.00;;;;;;;16.40;79.82;101930.84;4921507;29;20149;-84
2021/08/12 05:10:21;;;;;;;65.28;38.55;;;;;;;16.46;79.49;101930.47;4907781;29;20032;-84
2021/08/12 05:12:46;;;;;;;67.15;37.13;;;;;;;16.55;79.07;101921.91;4892211;29;20047;-85
2021/08/12 05:15:14;;;;;;;64.47;37.63;;;;;;;16.58;79.06;101918.22;4924996;29;20051;-84
2021/08/12 05:17:39;;;;;;;68.22;38.30;;;;;;;16.59;78.87;101929.72;4924736;29;20036;-85
2021/08/12 05:20:07;;;;;;;62.75;38.13;;;;;;;16.55;79.23;101929.06;4924414;29;20435;-84
2021/08/12 05:22:33;;;;;;;65.05;37.78;;;;;;;16.61;79.00;101931.38;4908557;29;20040;-85
2021/08/12 05:25:02;;;;;;;68.53;38.53;;;;;;;16.68;78.67;101935.38;4908511;29;20084;-84
2021/08/12 05:27:27;;;;;;;63.08;38.95;;;;;;;16.72;78.40;101937.84;4925758;29;20036;-84
2021/08/12 05:29:54;;;;;;;64.55;37.45;;;;;;;16.79;78.12;101933.84;4924999;29;20080;-84
2021/08/12 05:32:21;;;;;;;61.92;37.60;;;;;;;16.80;78.36;101944.41;4908566;29;20032;-84
2021/08/12 05:34:46;;;;;;;59.95;36.83;;;;;;;16.89;78.31;101934.13;4925399;29;20112;-84
2021/08/12 05:37:12;;;;;;;67.25;38.47;;;;;;;16.99;77.92;101937.09;4909847;29;20044;-84
2021/08/12 05:39:38;;;;;;;64.68;38.88;;;;;;;17.06;77.51;101933.94;4927126;29;20044;-83
2021/08/12 05:42:03;;;;;;;55.85;37.72;;;;;;;17.16;77.42;101936.88;4907949;29;20031;-85
2021/08/12 05:44:29;;;;;;;61.55;37.30;;;;;;;17.29;77.00;101947.66;4923351;29;20024;-86
2021/08/12 05:46:54;;;;;;;57.53;36.60;;;;;;;17.37;76.89;101940.97;4926292;29;20016;-85
2021/08/12 05:49:23;;;;;;;60.30;35.90;;;;;;;17.45;76.58;101954.69;4886309;29;20031;-85
2021/08/12 05:51:50;;;;;;;59.38;36.42;;;;;;;17.65;75.93;101949.88;4918550;29;20040;-84
2021/08/12 05:54:15;;;;;;;54.70;35.17;;;;;;;17.51;76.43;101945.44;4919147;29;20030;-85
2021/08/12 05:56:41;;;;;;;54.25;35.30;;;;;;;17.73;76.00;101944.00;4886019;29;20040;-85
2021/08/12 05:59:06;;;;;;;54.58;34.60;;;;;;;17.95;75.12;101940.75;4918516;29;20075;-85
2021/08/12 06:01:32;;;;;;;49.63;33.00;;;;;;;18.02;74.63;101941.19;4918822;29;20124;-84
2021/08/12 06:03:58;;;;;;;48.47;33.00;;;;;;;18.33;74.18;101949.84;4918179;29;20038;-82
2021/08/12 06:06:23;;;;;;;51.13;32.63;;;;;;;18.31;74.25;101949.09;4918315;29;20068;-84
2021/08/12 06:08:49;;;;;;;49.17;30.85;;;;;;;18.50;73.30;101953.16;4918099;29;20050;-83
2021/08/12 06:11:14;;;;;;;44.45;29.88;;;;;;;18.66;72.67;101953.81;4918154;29;20128;-83
2021/08/12 06:13:40;;;;;;;45.17;29.42;;;;;;;18.67;72.38;101952.84;4917118;29;20016;-83
2021/08/12 06:16:06;;;;;;;41.70;27.13;;;;;;;18.69;72.57;101952.75;4885674;29;20317;-84
2021/08/12 06:18:32;;;;;;;39.25;26.25;;;;;;;18.74;72.86;101952.41;4886041;29;20444;-83
2021/08/12 06:20:57;;;;;;;44.00;26.58;;;;;;;18.62;73.04;101954.16;4916863;29;20036;-82
2021/08/12 06:23:23;;;;;;;39.28;25.75;;;;;;;18.81;72.35;101951.03;4918417;29;20028;-83
2021/08/12 06:25:48;;;;;;;38.30;25.98;;;;;;;18.85;72.51;101962.38;4902839;29;20028;-84
2021/08/12 06:28:13;;;;;;;36.70;23.27;;;;;;;18.59;73.35;101959.72;4912954;29;20184;-84
2021/08/12 06:30:39;;;;;;;34.67;21.58;;;;;;;18.73;71.98;101964.13;4919135;29;20044;-84
2021/08/12 06:33:04;;;;;;;34.75;22.73;;;;;;;18.54;72.80;101965.41;4901247;29;20028;-83
2021/08/12 06:35:35;;;;;;;31.55;20.85;;;;;;;18.74;72.44;101966.69;4917885;29;20071;-84
2021/08/12 06:38:01;;;;;;;29.08;19.55;;;;;;;18.69;72.14;101968.81;4917619;29;20119;-83
2021/08/12 06:40:27;;;;;;;27.02;19.17;;;;;;;18.86;71.40;101966.78;4917719;29;20034;-84
2021/08/12 06:42:53;;;;;;;26.30;18.73;;;;;;;18.83;71.16;101965.16;4918506;29;20154;-83
2021/08/12 06:45:19;;;;;;;29.83;18.92;;;;;;;18.50;72.68;101958.53;4917145;29;20471;-83
2021/08/12 06:47:48;;;;;;;28.17;18.83;;;;;;;18.55;72.29;101961.75;4917456;29;20047;-85
2021/08/12 06:50:14;;;;;;;27.63;18.75;;;;;;;18.79;72.04;101955.66;4917332;29;20537;-84
2021/08/12 06:52:40;;;;;;;30.10;18.92;;;;;;;18.98;71.62;101965.06;4917113;29;20387;-84
2021/08/12 06:55:05;;;;;;;30.17;19.55;;;;;;;18.90;72.25;101960.25;4917318;29;20032;-85
2021/08/12 06:57:31;;;;;;;27.80;19.50;;;;;;;18.80;72.76;101963.56;4917154;29;20028;-86
2021/08/12 06:59:56;;;;;;;28.92;19.48;;;;;;;18.87;72.36;101971.19;4900171;29;20028;-85
2021/08/12 07:02:22;;;;;;;31.30;19.48;;;;;;;18.86;73.01;101972.16;4916860;29;20096;-84
2021/08/12 07:04:47;;;;;;;28.13;19.10;;;;;;;18.88;72.74;101965.72;4916939;29;20062;-84
2021/08/12 07:07:13;;;;;;;29.73;18.35;;;;;;;19.07;71.74;101959.03;4916748;29;20146;-85
2021/08/12 07:09:38;;;;;;;25.38;18.02;;;;;;;19.29;71.84;101962.88;4916850;29;20036;-83
2021/08/12 07:12:04;;;;;;;24.77;17.85;;;;;;;19.40;70.93;101962.97;4917564;29;20064;-85
2021/08/12 07:14:30;;;;;;;27.70;17.65;;;;;;;19.47;70.62;101957.16;4900074;29;20028;-84
2021/08/12 07:16:55;;;;;;;26.40;15.73;;;;;;;19.33;71.25;101961.66;4917084;29;20032;-84
2021/08/12 07:19:21;;;;;;;25.10;15.90;;;;;;;19.55;70.96;101960.97;4899997;29;20028;-84
2021/08/12 07:21:46;;;;;;;21.60;14.00;;;;;;;19.45;70.74;101954.56;4916571;29;20114;-85
2021/08/12 07:24:13;;;;;;;18.75;12.35;;;;;;;19.62;70.19;101957.81;4899894;29;20476;-84
2021/08/12 07:26:41;;;;;;;15.45;10.95;;;;;;;19.76;69.48;101957.66;4899608;29;20016;-84
2021/08/12 07:29:07;;;;;;;11.95;9.32;;;;;;;19.98;68.62;101968.59;4916412;29;20025;-85
2021/08/12 07:31:33;;;;;;;16.73;9.32;;;;;;;20.00;68.27;101964.84;4916596;29;20039;-85
2021/08/12 07:33:59;;;;;;;13.25;7.60;;;;;;;20.06;67.50;101966.22;4916009;29;20104;-86
2021/08/12 07:36:25;;;;;;;15.35;8.13;;;;;;;19.84;67.82;101967.81;4899483;29;20044;-83
2021/08/12 07:38:50;;;;;;;10.48;7.03;;;;;;;20.03;66.73;101972.69;4916112;29;20396;-83
2021/08/12 07:41:17;;;;;;;10.90;7.85;;;;;;;20.12;66.94;101963.06;4916321;29;20047;-87
2021/08/12 07:43:42;;;;;;;12.77;7.90;;;;;;;19.99;67.53;101967.63;4899608;29;20028;-86
2021/08/12 07:46:08;;;;;;;11.57;8.18;;;;;;;20.10;66.96;101966.88;4914911;29;20028;-86
2021/08/12 07:48:33;;;;;;;10.85;7.15;;;;;;;20.37;66.20;101969.25;4916478;29;20085;-84
2021/08/12 07:50:59;;;;;;;7.63;5.50;;;;;;;20.03;65.89;101977.19;4899615;29;20345;-85
2021/08/12 07:53:24;;;;;;;6.10;4.85;;;;;;;20.41;64.15;101976.06;4916976;29;20044;-83
2021/08/12 07:55:50;;;;;;;7.13;4.43;;;;;;;20.31;63.32;101968.84;4901214;29;20099;-91
2021/08/12 07:58:15;;;;;;;7.78;4.50;;;;;;;20.57;62.94;101969.50;4917318;29;20531;-87
2021/08/12 08:00:41;;;;;;;7.65;5.13;;;;;;;20.83;62.50;101963.06;4916413;29;20040;-84
2021/08/12 08:03:06;;;;;;;5.80;4.80;;;;;;;20.80;62.39;101966.88;4899326;29;20046;-83
2021/08/12 08:05:32;;;;;;;7.65;4.55;;;;;;;20.82;62.10;101970.25;4916203;29;20040;-85
2021/08/12 08:07:57;;;;;;;6.85;4.88;;;;;;;20.85;62.10;101974.56;4916031;29;20079;-84
2021/08/12 08:10:28;;;;;;;8.85;4.65;;;;;;;20.68;62.39;101965.97;4917037;29;20032;-90
2021/08/12 08:12:53;;;;;;;8.45;5.10;;;;;;;20.71;62.76;101959.53;4883680;29;20395;-86
2021/08/12 08:15:19;;;;;;;6.35;4.63;;;;;;;21.20;61.21;101972.72;4918589;29;20024;-84
2021/08/12 08:17:45;;;;;;;8.50;4.95;;;;;;;21.41;60.86;101979.06;4919402;29;20547;-84
2021/08/12 08:20:11;;;;;;;8.32;4.43;;;;;;;21.71;59.64;101975.81;4916018;29;20479;-84
2021/08/12 08:22:37;;;;;;;6.72;4.65;;;;;;;22.15;58.88;101971.22;4898882;29;20036;-84
2021/08/12 08:25:03;;;;;;;11.10;4.13;;;;;;;22.66;56.52;101970.56;4915926;29;20052;-84
2021/08/12 08:27:29;;;;;;;5.90;4.18;;;;;;;22.57;57.48;101968.66;4915978;29;20096;-84
2021/08/12 08:29:54;;;;;;;7.13;4.28;;;;;;;22.67;57.53;101968.75;4898748;29;20455;-83
2021/08/12 08:32:20;;;;;;;5.68;3.97;;;;;;;22.47;57.01;101972.16;4915843;29;20420;-85
2021/08/12 08:34:46;;;;;;;5.65;3.78;;;;;;;22.65;55.77;101983.19;4915524;23;20062;-85
2021/08/12 08:37:12;;;;;;;5.65;3.60;;;;;;;22.23;55.75;101975.94;4901984;29;20083;-86
2021/08/12 08:39:40;;;;;;;8.13;3.65;;;;;;;22.23;53.03;101993.97;4935397;29;20035;-86
2021/08/12 08:42:06;;;;;;;5.63;3.40;;;;;;;21.80;54.23;101984.97;4934731;29;20424;-86
2021/08/12 08:44:35;;;;;;;5.38;3.33;;;;;;;21.88;54.79;101980.66;4918677;29;20038;-85
2021/08/12 08:47:01;;;;;;;4.72;3.20;;;;;;;21.97;55.24;101984.41;4938961;29;20115;-84
2021/08/12 08:49:28;;;;;;;4.93;3.35;;;;;;;22.17;54.22;101987.25;4938661;29;20069;-84
2021/08/12 08:51:53;;;;;;;5.65;3.08;;;;;;;22.15;53.86;101983.84;4938734;29;20039;-84
2021/08/12 08:54:19;;;;;;;6.65;3.35;;;;;;;22.02;54.98;101989.41;4938467;29;20024;-84
2021/08/12 08:56:45;;;;;;;5.13;2.92;;;;;;;22.31;53.72;101987.94;4937673;29;20047;-83
2021/08/12 08:59:11;;;;;;;5.03;2.60;;;;;;;21.93;53.88;101980.28;4905746;29;20418;-84
2021/08/12 09:01:36;;;;;;;4.50;2.88;;;;;;;22.29;52.14;101979.97;4936645;29;20060;-83
2021/08/12 09:04:02;;;;;;;5.93;2.95;;;;;;;22.37;52.32;101972.06;4937899;29;20027;-85
2021/08/12 09:06:27;;;;;;;4.80;3.00;;;;;;;22.54;51.66;101975.16;4937900;29;20447;-84
2021/08/12 09:08:56;;;;;;;5.75;2.97;;;;;;;22.22;52.96;101993.09;4939137;29;20132;-84
2021/08/12 09:11:22;;;;;;;4.82;2.85;;;;;;;22.78;51.36;101985.66;4938245;29;20028;-83
2021/08/12 09:13:48;;;;;;;4.20;2.85;;;;;;;23.60;49.49;101986.66;4921033;29;20036;-82
2021/08/12 09:16:36;;;;;;;6.25;3.33;;;;;;;24.70;47.28;101989.13;4938034;29;20031;-86
2021/08/12 09:19:20;;;;;;;3.45;2.70;;;;;;;25.45;44.71;101990.06;4921968;29;20109;-82
2021/08/12 09:21:51;;;;;;;5.70;2.80;;;;;;;25.41;45.93;101996.81;4938447;29;20116;-83
2021/08/12 09:24:16;;;;;;;4.32;2.92;;;;;;;26.05;44.81;101993.22;4937925;29;20110;-83
2021/08/12 09:26:42;;;;;;;5.03;3.20;;;;;;;25.01;46.41;101993.44;4937407;29;20027;-84
2021/08/12 09:29:07;;;;;;;5.10;2.80;;;;;;;25.24;44.01;101991.19;4937788;29;20035;-84
2021/08/12 09:31:33;;;;;;;4.53;2.95;;;;;;;25.48;44.44;101983.53;4920653;29;20031;-84
2021/08/12 09:33:58;;;;;;;4.85;3.35;;;;;;;26.42;42.67;102001.31;4904402;29;20031;-84
2021/08/12 09:36:26;;;;;;;4.05;2.80;;;;;;;26.32;42.97;101994.13;4920474;29;20040;-87
2021/08/12 09:39:11;;;;;;;3.70;3.00;;;;;;;25.34;45.72;101999.25;4936110;29;20490;-86
2021/08/12 09:41:43;;;;;;;4.57;2.97;;;;;;;25.55;45.37;102002.69;4937383;29;20107;-83
2021/08/12 09:44:38;;;;;;;4.68;3.00;;;;;;;25.92;43.70;102001.72;4937371;29;20426;-83
2021/08/12 09:47:06;;;;;;;3.08;2.45;;;;;;;26.54;42.53;102010.03;4936118;29;20043;-83
2021/08/12 09:49:51;;;;;;;6.28;2.70;;;;;;;26.17;43.15;102001.94;4937045;29;20024;-83
2021/08/12 09:52:31;;;;;;;7.22;2.60;;;;;;;26.68;43.18;102001.31;4936961;29;20494;-83
2021/08/12 09:55:18;;;;;;;5.70;3.15;;;;;;;26.88;42.45;102006.47;4936665;29;20082;-83
2021/08/12 09:57:51;;;;;;;5.43;3.20;;;;;;;26.62;43.70;102010.91;4936916;29;20455;-83
2021/08/12 10:00:31;;;;;;;3.65;2.60;;;;;;;26.70;43.08;102020.13;4936812;29;20031;-83
2021/08/12 10:03:00;;;;;;;4.53;2.95;;;;;;;26.81;42.67;102022.56;4919319;29;20083;-82
2021/08/12 10:05:26;;;;;;;4.82;2.70;;;;;;;25.61;44.67;102013.81;4936683;29;20110;-84
2021/08/12 10:07:53;;;;;;;4.03;2.85;;;;;;;26.12;43.65;102015.94;4919654;29;20028;-82
2021/08/12 10:10:25;;;;;;;3.67;2.63;;;;;;;26.54;42.38;102026.28;4936710;29;20229;-82
2021/08/12 10:13:00;;;;;;;6.30;2.95;;;;;;;26.44;42.38;102013.69;4936655;29;20140;-83
2021/08/12 10:15:27;;;;;;;4.53;2.85;;;;;;;26.20;41.84;102022.47;4936675;29;20490;-83
2021/08/12 10:17:54;;;;;;;4.28;2.90;;;;;;;26.37;42.07;102013.47;4919917;29;20031;-83
2021/08/12 10:20:23;;;;;;;5.88;2.90;;;;;;;25.61;43.20;102027.34;4935415;29;20552;-82
2021/08/12 10:22:49;;;;;;;5.45;2.83;;;;;;;25.60;43.77;102000.38;4936409;29;20506;-84
2021/08/12 10:25:16;;;;;;;5.10;2.85;;;;;;;25.41;44.07;102007.63;4903586;29;20074;-84
2021/08/12 10:27:41;;;;;;;3.63;2.60;;;;;;;26.15;42.36;102012.09;4919179;29;20030;-83
2021/08/12 10:30:07;;;;;;;4.10;2.63;;;;;;;26.02;42.85;102004.34;4936599;29;20024;-82
2021/08/12 10:32:35;;;;;;;5.15;3.03;;;;;;;25.68;44.15;102007.78;4936314;29;20547;-83
2021/08/12 10:35:03;;;;;;;4.95;2.60;;;;;;;26.47;43.02;102001.66;4919025;29;20063;-83
2021/08/12 10:37:28;;;;;;;3.00;2.60;;;;;;;26.61;41.43;101995.66;4903258;29;20090;-84
2021/08/12 10:39:54;;;;;;;5.05;2.80;;;;;;;26.31;42.38;102005.13;4918965;29;20040;-82
2021/08/12 10:42:19;;;;;;;3.00;2.55;;;;;;;25.84;40.47;102007.09;4935930;29;20493;-84
2021/08/12 10:44:45;;;;;;;5.35;2.72;;;;;;;25.37;42.50;102015.19;4936008;29;20415;-84
2021/08/12 10:47:41;;;;;;;4.53;2.60;;;;;;;25.57;41.21;102017.81;4934840;29;20046;-83
2021/08/12 10:50:21;;;;;;;4.32;2.70;;;;;;;24.93;43.91;102009.59;4936139;29;20067;-84
2021/08/12 10:53:06;;;;;;;5.10;2.80;;;;;;;26.26;43.52;102008.28;4918678;29;20040;-84
2021/08/12 10:55:52;;;;;;;5.05;3.33;;;;;;;25.87;45.18;102015.75;4935687;29;20035;-84
2021/08/12 10:58:18;;;;;;;5.93;3.22;;;;;;;26.22;44.89;102007.75;4922505;29;20039;-84
2021/08/12 11:00:56;;;;;;;5.05;3.17;;;;;;;25.66;45.24;102010.63;4934647;29;20114;-82
2021/08/12 11:03:34;;;;;;;4.80;3.40;;;;;;;25.72;45.21;102020.84;4935554;29;20467;-83
2021/08/12 11:06:08;;;;;;;5.00;3.53;;;;;;;25.80;45.36;102014.66;4936121;29;20398;-83
2021/08/12 11:08:52;;;;;;;6.00;3.08;;;;;;;25.49;46.37;102010.44;4935310;29;20475;-86
2021/08/12 11:11:20;;;;;;;5.97;3.13;;;;;;;25.56;46.36;102012.53;4935496;29;20557;-84
2021/08/12 11:13:46;;;;;;;5.93;3.42;;;;;;;25.31;46.37;102006.81;4918283;29;20032;-84
2021/08/12 11:16:12;;;;;;;4.57;3.30;;;;;;;25.33;45.73;102007.53;4918743;29;20043;-83
2021/08/12 11:18:42;;;;;;;5.80;3.00;;;;;;;24.36;49.56;102009.44;4918467;29;20028;-83
2021/08/12 11:21:30;;;;;;;3.65;2.95;;;;;;;24.72;48.11;102006.06;4918398;29;20051;-83